sensor_id;sensor_type;location;lat;lon;timestamp;pressure;altitude;pressure_sealevel;temperature;humidity
43745;BME280;29359;53.048;8.732;2022-08-19T00:00:21;101396.38;;;17.36;90.90
43745;BME280;29359;53.048;8.732;2022-08-19T00:02:23;101396.16;;;17.40;90.38
43745;BME280;29359;53.048;8.732;2022-08-19T00:04:28;101404.97;;;17.42;89.41
43745;BME280;29359;53.048;8.732;2022-08-19T00:06:30;101411.97;;;17.45;88.04
43745;BME280;29359;53.048;8.732;2022-08-19T00:08:32;101418.09;;;17.47;88.41
43745;BME280;29359;53.048;8.732;2022-08-19T00:10:33;101415.41;;;17.47;88.87
43745;BME280;29359;53.048;8.732;2022-08-19T00:12:35;101415.41;;;17.47;88.22
43745;BME280;29359;53.048;8.732;2022-08-19T00:14:47;101416.22;;;17.49;87.35
43745;BME280;29359;53.048;8.732;2022-08-19T00:16:49;101410.72;;;17.52;87.68
43745;BME280;29359;53.048;8.732;2022-08-19T00:18:56;101409.84;;;17.51;87.49
43745;BME280;29359;53.048;8.732;2022-08-19T00:20:57;101414.25;;;17.52;86.99
43745;BME280;29359;53.048;8.732;2022-08-19T00:23:00;101408.84;;;17.54;86.51
43745;BME280;29359;53.048;8.732;2022-08-19T00:25:02;101410.56;;;17.55;86.50
43745;BME280;29359;53.048;8.732;2022-08-19T00:27:04;101402.50;;;17.56;86.82
43745;BME280;29359;53.048;8.732;2022-08-19T00:29:26;101408.78;;;17.55;85.57
43745;BME280;29359;53.048;8.732;2022-08-19T00:31:27;101406.88;;;17.57;82.58
43745;BME280;29359;53.048;8.732;2022-08-19T00:33:29;101409.41;;;17.61;80.62
43745;BME280;29359;53.048;8.732;2022-08-19T00:35:33;101410.13;;;17.64;79.41
43745;BME280;29359;53.048;8.732;2022-08-19T00:37:35;101406.41;;;17.68;77.56
43745;BME280;29359;53.048;8.732;2022-08-19T00:39:37;101416.00;;;17.72;77.72
43745;BME280;29359;53.048;8.732;2022-08-19T00:41:39;101412.22;;;17.76;81.11
43745;BME280;29359;53.048;8.732;2022-08-19T00:43:40;101407.81;;;17.75;83.03
43745;BME280;29359;53.048;8.732;2022-08-19T00:45:42;101412.31;;;17.75;84.11
43745;BME280;29359;53.048;8.732;2022-08-19T00:47:44;101413.25;;;17.74;84.74
43745;BME280;29359;53.048;8.732;2022-08-19T00:49:52;101413.25;;;17.74;85.38
43745;BME280;29359;53.048;8.732;2022-08-19T00:52:15;101411.50;;;17.73;87.00
43745;BME280;29359;53.048;8.732;2022-08-19T00:54:18;101418.81;;;17.69;87.14
43745;BME280;29359;53.048;8.732;2022-08-19T00:56:30;101417.06;;;17.68;86.13
43745;BME280;29359;53.048;8.732;2022-08-19T00:58:34;101421.41;;;17.71;87.44
43745;BME280;29359;53.048;8.732;2022-08-19T01:00:37;101416.22;;;17.68;87.92
43745;BME280;29359;53.048;8.732;2022-08-19T01:02:40;101409.94;;;17.69;88.35
43745;BME280;29359;53.048;8.732;2022-08-19T01:04:42;101411.75;;;17.68;88.34
43745;BME280;29359;53.048;8.732;2022-08-19T01:06:43;101415.28;;;17.69;88.77
43745;BME280;29359;53.048;8.732;2022-08-19T01:08:45;101415.28;;;17.69;89.08
43745;BME280;29359;53.048;8.732;2022-08-19T01:10:54;101404.66;;;17.67;89.23
43745;BME280;29359;53.048;8.732;2022-08-19T01:12:58;101398.59;;;17.64;89.29
43745;BME280;29359;53.048;8.732;2022-08-19T01:15:00;101398.50;;;17.65;89.42
43745;BME280;29359;53.048;8.732;2022-08-19T01:17:02;101403.72;;;17.68;89.52
43745;BME280;29359;53.048;8.732;2022-08-19T01:19:17;101396.66;;;17.67;89.30
43745;BME280;29359;53.048;8.732;2022-08-19T01:21:32;101399.25;;;17.69;89.44
43745;BME280;29359;53.048;8.732;2022-08-19T01:23:35;101384.88;;;17.71;88.84
43745;BME280;29359;53.048;8.732;2022-08-19T01:25:52;101386.53;;;17.74;87.12
43745;BME280;29359;53.048;8.732;2022-08-19T01:27:55;101378.44;;;17.75;87.00
43745;BME280;29359;53.048;8.732;2022-08-19T01:30:04;101382.13;;;17.73;87.83
43745;BME280;29359;53.048;8.732;2022-08-19T01:32:10;101379.53;;;17.71;87.71
43745;BME280;29359;53.048;8.732;2022-08-19T01:34:33;101376.94;;;17.70;88.32
43745;BME280;29359;53.048;8.732;2022-08-19T01:36:42;101366.34;;;17.68;88.86
43745;BME280;29359;53.048;8.732;2022-08-19T01:38:45;101360.19;;;17.66;89.21
43745;BME280;29359;53.048;8.732;2022-08-19T01:40:47;101363.78;;;17.65;89.44
43745;BME280;29359;53.048;8.732;2022-08-19T01:42:49;101358.44;;;17.65;89.58
43745;BME280;29359;53.048;8.732;2022-08-19T01:44:51;101358.34;;;17.68;89.70
43745;BME280;29359;53.048;8.732;2022-08-19T01:46:53;101356.38;;;17.72;89.47
43745;BME280;29359;53.048;8.732;2022-08-19T01:48:54;101357.25;;;17.72;89.38
43745;BME280;29359;53.048;8.732;2022-08-19T01:50:56;101356.28;;;17.73;89.25
43745;BME280;29359;53.048;8.732;2022-08-19T01:52:58;101358.97;;;17.73;89.06
43745;BME280;29359;53.048;8.732;2022-08-19T01:55:11;101358.81;;;17.76;89.12
43745;BME280;29359;53.048;8.732;2022-08-19T01:57:14;101360.41;;;17.80;88.69
43745;BME280;29359;53.048;8.732;2022-08-19T01:59:19;101354.22;;;17.80;88.88
43745;BME280;29359;53.048;8.732;2022-08-19T02:01:21;101351.75;;;17.75;88.96
43745;BME280;29359;53.048;8.732;2022-08-19T02:03:26;101358.03;;;17.74;89.05
43745;BME280;29359;53.048;8.732;2022-08-19T02:05:27;101349.94;;;17.76;89.15
43745;BME280;29359;53.048;8.732;2022-08-19T02:07:30;101349.00;;;17.77;88.94
43745;BME280;29359;53.048;8.732;2022-08-19T02:09:32;101344.47;;;17.79;88.48
43745;BME280;29359;53.048;8.732;2022-08-19T02:11:35;101347.94;;;17.81;88.27
43745;BME280;29359;53.048;8.732;2022-08-19T02:13:37;101348.00;;;17.79;88.35
43745;BME280;29359;53.048;8.732;2022-08-19T02:15:39;101350.81;;;17.76;88.66
43745;BME280;29359;53.048;8.732;2022-08-19T02:17:41;101350.16;;;17.71;88.67
43745;BME280;29359;53.048;8.732;2022-08-19T02:19:43;101343.16;;;17.69;88.72
43745;BME280;29359;53.048;8.732;2022-08-19T02:21:44;101338.78;;;17.68;88.90
43745;BME280;29359;53.048;8.732;2022-08-19T02:23:46;101335.28;;;17.66;88.81
43745;BME280;29359;53.048;8.732;2022-08-19T02:25:48;101326.72;;;17.59;89.00
43745;BME280;29359;53.048;8.732;2022-08-19T02:27:50;101320.91;;;17.51;89.38
43745;BME280;29359;53.048;8.732;2022-08-19T02:29:52;101313.50;;;17.39;89.79
43745;BME280;29359;53.048;8.732;2022-08-19T02:31:53;101311.91;;;17.35;90.08
43745;BME280;29359;53.048;8.732;2022-08-19T02:33:56;101319.09;;;17.33;90.44
43745;BME280;29359;53.048;8.732;2022-08-19T02:35:57;101311.25;;;17.30;90.65
43745;BME280;29359;53.048;8.732;2022-08-19T02:37:59;101300.78;;;17.25;90.79
43745;BME280;29359;53.048;8.732;2022-08-19T02:40:19;101315.31;;;17.19;91.13
43745;BME280;29359;53.048;8.732;2022-08-19T02:42:22;101309.47;;;17.11;91.48
43745;BME280;29359;53.048;8.732;2022-08-19T02:44:24;101316.69;;;17.09;91.20
43745;BME280;29359;53.048;8.732;2022-08-19T02:46:33;101321.00;;;17.12;91.46
43745;BME280;29359;53.048;8.732;2022-08-19T02:48:34;101322.66;;;17.14;90.51
43745;BME280;29359;53.048;8.732;2022-08-19T02:50:39;101320.84;;;17.15;90.46
43745;BME280;29359;53.048;8.732;2022-08-19T02:52:53;101319.28;;;17.11;90.62
43745;BME280;29359;53.048;8.732;2022-08-19T02:54:55;101318.72;;;17.04;91.08
43745;BME280;29359;53.048;8.732;2022-08-19T02:56:58;101310.06;;;16.99;91.50
43745;BME280;29359;53.048;8.732;2022-08-19T02:59:00;101311.13;;;16.95;91.74
43745;BME280;29359;53.048;8.732;2022-08-19T03:01:02;101308.47;;;16.95;91.57
43745;BME280;29359;53.048;8.732;2022-08-19T03:03:03;101311.06;;;16.97;90.00
43745;BME280;29359;53.048;8.732;2022-08-19T03:05:07;101298.53;;;16.99;87.81
43745;BME280;29359;53.048;8.732;2022-08-19T03:07:13;101305.50;;;17.01;86.12
43745;BME280;29359;53.048;8.732;2022-08-19T03:09:16;101315.25;;;17.02;86.80
43745;BME280;29359;53.048;8.732;2022-08-19T03:11:23;101307.38;;;16.99;87.84
43745;BME280;29359;53.048;8.732;2022-08-19T03:13:25;101304.06;;;16.94;88.62
43745;BME280;29359;53.048;8.732;2022-08-19T03:15:26;101315.88;;;16.88;89.30
43745;BME280;29359;53.048;8.732;2022-08-19T03:17:28;101314.34;;;16.83;89.42
43745;BME280;29359;53.048;8.732;2022-08-19T03:19:30;101325.88;;;16.83;87.43
43745;BME280;29359;53.048;8.732;2022-08-19T03:21:33;101329.41;;;16.84;83.92
43745;BME280;29359;53.048;8.732;2022-08-19T03:23:35;101326.59;;;16.87;80.07
43745;BME280;29359;53.048;8.732;2022-08-19T03:25:39;101324.72;;;16.89;76.69
43745;BME280;29359;53.048;8.732;2022-08-19T03:27:43;101334.44;;;16.91;74.91
43745;BME280;29359;53.048;8.732;2022-08-19T03:29:44;101339.75;;;16.91;74.61
43745;BME280;29359;53.048;8.732;2022-08-19T03:31:47;101347.78;;;16.90;76.32
43745;BME280;29359;53.048;8.732;2022-08-19T03:33:53;101347.06;;;16.86;73.90
43745;BME280;29359;53.048;8.732;2022-08-19T03:38:06;101347.00;;;16.88;71.73
43745;BME280;29359;53.048;8.732;2022-08-19T03:40:08;101355.00;;;16.88;71.55
43745;BME280;29359;53.048;8.732;2022-08-19T03:42:16;101358.69;;;16.85;71.99
43745;BME280;29359;53.048;8.732;2022-08-19T03:44:33;101357.03;;;16.83;74.07
43745;BME280;29359;53.048;8.732;2022-08-19T03:46:37;101351.81;;;16.80;79.98
43745;BME280;29359;53.048;8.732;2022-08-19T03:48:44;101341.72;;;16.68;84.47
43745;BME280;29359;53.048;8.732;2022-08-19T03:50:46;101337.13;;;16.51;87.28
43745;BME280;29359;53.048;8.732;2022-08-19T03:52:51;101341.31;;;16.36;89.74
43745;BME280;29359;53.048;8.732;2022-08-19T03:54:53;101344.19;;;16.31;90.89
43745;BME280;29359;53.048;8.732;2022-08-19T03:56:55;101355.63;;;16.33;89.63
43745;BME280;29359;53.048;8.732;2022-08-19T03:58:58;101358.16;;;16.37;86.24
43745;BME280;29359;53.048;8.732;2022-08-19T04:01:00;101365.91;;;16.43;87.25
43745;BME280;29359;53.048;8.732;2022-08-19T04:03:02;101367.75;;;16.41;85.08
43745;BME280;29359;53.048;8.732;2022-08-19T04:05:04;101361.50;;;16.42;81.34
43745;BME280;29359;53.048;8.732;2022-08-19T04:07:07;101353.38;;;16.45;79.52
43745;BME280;29359;53.048;8.732;2022-08-19T04:09:11;101355.94;;;16.48;85.01
43745;BME280;29359;53.048;8.732;2022-08-19T04:11:15;101351.69;;;16.42;87.50
43745;BME280;29359;53.048;8.732;2022-08-19T04:13:17;101363.38;;;16.40;85.43
43745;BME280;29359;53.048;8.732;2022-08-19T04:15:19;101375.69;;;16.42;81.87
43745;BME280;29359;53.048;8.732;2022-08-19T04:17:21;101372.09;;;16.43;78.62
43745;BME280;29359;53.048;8.732;2022-08-19T04:19:23;101377.28;;;16.46;81.83
43745;BME280;29359;53.048;8.732;2022-08-19T04:21:26;101377.56;;;16.40;85.13
43745;BME280;29359;53.048;8.732;2022-08-19T04:23:28;101370.63;;;16.36;84.69
43745;BME280;29359;53.048;8.732;2022-08-19T04:25:35;101368.75;;;16.38;86.65
43745;BME280;29359;53.048;8.732;2022-08-19T04:27:37;101370.63;;;16.36;86.54
43745;BME280;29359;53.048;8.732;2022-08-19T04:29:38;101370.63;;;16.36;83.88
43745;BME280;29359;53.048;8.732;2022-08-19T04:31:43;101370.50;;;16.39;83.35
43745;BME280;29359;53.048;8.732;2022-08-19T04:33:46;101368.81;;;16.37;86.35
43745;BME280;29359;53.048;8.732;2022-08-19T04:35:50;101362.78;;;16.33;87.21
43745;BME280;29359;53.048;8.732;2022-08-19T04:37:52;101359.44;;;16.28;88.13
43745;BME280;29359;53.048;8.732;2022-08-19T04:39:54;101363.16;;;16.24;88.82
43745;BME280;29359;53.048;8.732;2022-08-19T04:42:17;101365.16;;;16.19;89.46
43745;BME280;29359;53.048;8.732;2022-08-19T04:44:37;101371.38;;;16.19;89.22
43745;BME280;29359;53.048;8.732;2022-08-19T04:46:48;101367.84;;;16.19;89.88
43745;BME280;29359;53.048;8.732;2022-08-19T04:48:51;101372.22;;;16.20;89.00
43745;BME280;29359;53.048;8.732;2022-08-19T04:50:56;101372.22;;;16.20;88.85
43745;BME280;29359;53.048;8.732;2022-08-19T04:53:01;101371.31;;;16.21;88.79
43745;BME280;29359;53.048;8.732;2022-08-19T04:55:03;101372.09;;;16.23;88.39
43745;BME280;29359;53.048;8.732;2022-08-19T04:57:08;101370.38;;;16.22;88.76
43745;BME280;29359;53.048;8.732;2022-08-19T04:59:11;101372.97;;;16.23;88.50
43745;BME280;29359;53.048;8.732;2022-08-19T05:01:17;101367.69;;;16.22;89.38
43745;BME280;29359;53.048;8.732;2022-08-19T05:03:20;101374.97;;;16.18;89.62
43745;BME280;29359;53.048;8.732;2022-08-19T05:05:21;101367.25;;;16.12;90.10
43745;BME280;29359;53.048;8.732;2022-08-19T05:07:23;101371.03;;;16.07;90.47
43745;BME280;29359;53.048;8.732;2022-08-19T05:09:25;101375.66;;;16.01;90.97
43745;BME280;29359;53.048;8.732;2022-08-19T05:11:32;101382.72;;;16.02;91.02
43745;BME280;29359;53.048;8.732;2022-08-19T05:13:34;101384.44;;;16.03;91.28
43745;BME280;29359;53.048;8.732;2022-08-19T05:15:35;101384.44;;;16.03;91.42
43745;BME280;29359;53.048;8.732;2022-08-19T05:17:37;101388.91;;;16.03;91.55
43745;BME280;29359;53.048;8.732;2022-08-19T05:19:39;101381.69;;;16.07;89.78
43745;BME280;29359;53.048;8.732;2022-08-19T05:22:00;101379.56;;;16.15;86.79
43745;BME280;29359;53.048;8.732;2022-08-19T05:24:22;101379.28;;;16.21;85.54
43745;BME280;29359;53.048;8.732;2022-08-19T05:26:25;101378.28;;;16.23;85.72
43745;BME280;29359;53.048;8.732;2022-08-19T05:28:27;101377.28;;;16.26;86.31
43745;BME280;29359;53.048;8.732;2022-08-19T05:30:31;101382.50;;;16.29;85.79
43745;BME280;29359;53.048;8.732;2022-08-19T05:32:47;101384.03;;;16.34;86.07
43745;BME280;29359;53.048;8.732;2022-08-19T05:34:49;101386.41;;;16.41;86.39
43745;BME280;29359;53.048;8.732;2022-08-19T05:36:53;101392.34;;;16.47;87.40
43745;BME280;29359;53.048;8.732;2022-08-19T05:38:57;101390.50;;;16.49;88.18
43745;BME280;29359;53.048;8.732;2022-08-19T05:40:58;101396.63;;;16.51;88.58
43745;BME280;29359;53.048;8.732;2022-08-19T05:43:00;101382.44;;;16.51;89.13
43745;BME280;29359;53.048;8.732;2022-08-19T05:45:02;101387.91;;;16.48;89.09
43745;BME280;29359;53.048;8.732;2022-08-19T05:47:06;101374.81;;;16.42;89.21
43745;BME280;29359;53.048;8.732;2022-08-19T05:49:09;101384.88;;;16.35;89.41
43745;BME280;29359;53.048;8.732;2022-08-19T05:51:11;101374.22;;;16.35;89.76
43745;BME280;29359;53.048;8.732;2022-08-19T05:53:13;101369.63;;;16.39;89.85
43745;BME280;29359;53.048;8.732;2022-08-19T05:55:15;101369.44;;;16.43;89.64
43745;BME280;29359;53.048;8.732;2022-08-19T05:57:18;101361.97;;;16.51;88.96
43745;BME280;29359;53.048;8.732;2022-08-19T05:59:21;101366.09;;;16.58;88.08
43745;BME280;29359;53.048;8.732;2022-08-19T06:01:26;101361.44;;;16.63;88.02
43745;BME280;29359;53.048;8.732;2022-08-19T06:03:27;101364.25;;;16.60;88.44
43745;BME280;29359;53.048;8.732;2022-08-19T06:05:30;101364.31;;;16.59;88.26
43745;BME280;29359;53.048;8.732;2022-08-19T06:07:46;101374.75;;;16.63;88.47
43745;BME280;29359;53.048;8.732;2022-08-19T06:09:48;101374.59;;;16.68;88.34
43745;BME280;29359;53.048;8.732;2022-08-19T06:12:01;101376.97;;;16.74;88.06
43745;BME280;29359;53.048;8.732;2022-08-19T06:14:07;101382.31;;;16.74;87.74
43745;BME280;29359;53.048;8.732;2022-08-19T06:16:20;101373.44;;;16.74;87.88
43745;BME280;29359;53.048;8.732;2022-08-19T06:18:24;101369.97;;;16.72;88.05
43745;BME280;29359;53.048;8.732;2022-08-19T06:20:26;101378.72;;;16.75;88.13
43745;BME280;29359;53.048;8.732;2022-08-19T06:22:48;101384.41;;;16.86;86.95
43745;BME280;29359;53.048;8.732;2022-08-19T06:24:51;101382.38;;;16.93;86.92
43745;BME280;29359;53.048;8.732;2022-08-19T06:26:56;101397.00;;;17.03;83.87
43745;BME280;29359;53.048;8.732;2022-08-19T06:29:04;101389.44;;;17.13;82.53
43745;BME280;29359;53.048;8.732;2022-08-19T06:31:07;101385.69;;;17.17;83.49
43745;BME280;29359;53.048;8.732;2022-08-19T06:33:09;101398.22;;;17.15;84.40
43745;BME280;29359;53.048;8.732;2022-08-19T06:35:11;101394.56;;;17.17;84.93
43745;BME280;29359;53.048;8.732;2022-08-19T06:37:13;101399.38;;;17.09;85.06
43745;BME280;29359;53.048;8.732;2022-08-19T06:39:18;101402.34;;;17.03;85.58
43745;BME280;29359;53.048;8.732;2022-08-19T06:41:20;101407.03;;;16.98;85.89
43745;BME280;29359;53.048;8.732;2022-08-19T06:43:22;101400.81;;;16.98;86.02
43745;BME280;29359;53.048;8.732;2022-08-19T06:45:28;101401.47;;;17.03;86.06
43745;BME280;29359;53.048;8.732;2022-08-19T06:47:35;101401.13;;;17.10;86.00
43745;BME280;29359;53.048;8.732;2022-08-19T06:49:37;101404.38;;;17.17;85.57
43745;BME280;29359;53.048;8.732;2022-08-19T06:51:44;101399.59;;;17.23;85.21
43745;BME280;29359;53.048;8.732;2022-08-19T06:53:51;101413.25;;;17.36;85.33
43745;BME280;29359;53.048;8.732;2022-08-19T06:55:53;101406.47;;;17.48;81.78
43745;BME280;29359;53.048;8.732;2022-08-19T06:58:03;101409.19;;;17.65;80.36
43745;BME280;29359;53.048;8.732;2022-08-19T07:00:05;101407.13;;;17.72;81.40
43745;BME280;29359;53.048;8.732;2022-08-19T07:02:13;101409.19;;;17.65;82.37
43745;BME280;29359;53.048;8.732;2022-08-19T07:04:17;101408.78;;;17.74;81.67
43745;BME280;29359;53.048;8.732;2022-08-19T07:06:19;101413.53;;;17.86;79.89
43745;BME280;29359;53.048;8.732;2022-08-19T07:08:41;101415.53;;;18.00;75.54
43745;BME280;29359;53.048;8.732;2022-08-19T07:10:44;101415.28;;;18.05;77.76
43745;BME280;29359;53.048;8.732;2022-08-19T07:12:46;101413.09;;;18.13;76.66
43745;BME280;29359;53.048;8.732;2022-08-19T07:14:50;101412.56;;;18.24;78.35
43745;BME280;29359;53.048;8.732;2022-08-19T07:16:54;101413.19;;;18.29;79.63
43745;BME280;29359;53.048;8.732;2022-08-19T07:18:57;101415.47;;;18.36;79.34
43745;BME280;29359;53.048;8.732;2022-08-19T07:21:29;101415.88;;;18.29;79.24
43745;BME280;29359;53.048;8.732;2022-08-19T07:23:30;101425.06;;;18.23;79.65
43745;BME280;29359;53.048;8.732;2022-08-19T07:25:32;101430.88;;;18.31;79.78
43745;BME280;29359;53.048;8.732;2022-08-19T07:27:34;101431.19;;;18.42;77.53
43745;BME280;29359;53.048;8.732;2022-08-19T07:29:36;101429.16;;;18.47;78.60
43745;BME280;29359;53.048;8.732;2022-08-19T07:31:38;101427.59;;;18.43;79.13
43745;BME280;29359;53.048;8.732;2022-08-19T07:33:40;101416.03;;;18.43;79.52
43745;BME280;29359;53.048;8.732;2022-08-19T07:35:44;101422.25;;;18.43;78.91
43745;BME280;29359;53.048;8.732;2022-08-19T07:37:46;101419.53;;;18.61;69.95
43745;BME280;29359;53.048;8.732;2022-08-19T07:39:47;101430.78;;;18.69;75.85
43745;BME280;29359;53.048;8.732;2022-08-19T07:41:49;101433.53;;;18.67;77.15
43745;BME280;29359;53.048;8.732;2022-08-19T07:43:52;101448.38;;;18.73;77.31
43745;BME280;29359;53.048;8.732;2022-08-19T07:45:55;101444.34;;;18.81;77.21
43745;BME280;29359;53.048;8.732;2022-08-19T07:48:00;101449.22;;;18.91;77.32
43745;BME280;29359;53.048;8.732;2022-08-19T07:50:05;101445.34;;;18.96;76.91
43745;BME280;29359;53.048;8.732;2022-08-19T07:52:09;101455.28;;;18.94;77.15
43745;BME280;29359;53.048;8.732;2022-08-19T07:54:10;101456.75;;;19.00;76.98
43745;BME280;29359;53.048;8.732;2022-08-19T07:56:13;101458.41;;;19.02;76.81
43745;BME280;29359;53.048;8.732;2022-08-19T07:58:18;101461.63;;;19.09;76.91
43745;BME280;29359;53.048;8.732;2022-08-19T08:00:20;101462.34;;;19.12;76.27
43745;BME280;29359;53.048;8.732;2022-08-19T08:02:24;101460.09;;;19.21;75.24
43745;BME280;29359;53.048;8.732;2022-08-19T08:04:27;101459.53;;;19.31;71.10
43745;BME280;29359;53.048;8.732;2022-08-19T08:06:47;101466.47;;;19.51;72.06
43745;BME280;29359;53.048;8.732;2022-08-19T08:09:07;101455.28;;;19.60;68.87
43745;BME280;29359;53.048;8.732;2022-08-19T08:11:13;101446.47;;;19.74;65.24
43745;BME280;29359;53.048;8.732;2022-08-19T08:13:15;101455.44;;;19.89;64.83
43745;BME280;29359;53.048;8.732;2022-08-19T08:15:17;101458.28;;;19.86;71.65
43745;BME280;29359;53.048;8.732;2022-08-19T08:17:22;101459.59;;;19.79;72.99
43745;BME280;29359;53.048;8.732;2022-08-19T08:19:44;101467.72;;;19.77;73.53
43745;BME280;29359;53.048;8.732;2022-08-19T08:21:47;101476.88;;;19.73;73.55
43745;BME280;29359;53.048;8.732;2022-08-19T08:23:49;101475.25;;;19.70;70.53
43745;BME280;29359;53.048;8.732;2022-08-19T08:25:57;101470.22;;;19.80;70.58
43745;BME280;29359;53.048;8.732;2022-08-19T08:27:59;101477.50;;;19.78;72.74
43745;BME280;29359;53.048;8.732;2022-08-19T08:30:02;101483.09;;;19.73;73.18
43745;BME280;29359;53.048;8.732;2022-08-19T08:32:04;101482.84;;;19.62;73.35
43745;BME280;29359;53.048;8.732;2022-08-19T08:34:15;101480.09;;;19.64;74.17
43745;BME280;29359;53.048;8.732;2022-08-19T08:36:17;101473.50;;;19.69;74.08
43745;BME280;29359;53.048;8.732;2022-08-19T08:38:18;101480.00;;;19.65;73.29
43745;BME280;29359;53.048;8.732;2022-08-19T08:40:26;101467.81;;;19.75;72.85
43745;BME280;29359;53.048;8.732;2022-08-19T08:42:30;101478.19;;;19.82;72.62
43745;BME280;29359;53.048;8.732;2022-08-19T08:46:42;101486.56;;;19.91;71.66
43745;BME280;29359;53.048;8.732;2022-08-19T08:48:54;101487.19;;;19.96;71.53
43745;BME280;29359;53.048;8.732;2022-08-19T08:50:58;101484.66;;;20.09;68.58
43745;BME280;29359;53.048;8.732;2022-08-19T08:53:07;101480.59;;;20.18;69.67
43745;BME280;29359;53.048;8.732;2022-08-19T08:55:12;101485.94;;;20.18;70.15
43745;BME280;29359;53.048;8.732;2022-08-19T08:57:26;101491.41;;;20.16;69.58
43745;BME280;29359;53.048;8.732;2022-08-19T08:59:36;101492.16;;;20.18;69.52
43745;BME280;29359;53.048;8.732;2022-08-19T09:01:39;101487.22;;;20.26;69.20
43745;BME280;29359;53.048;8.732;2022-08-19T09:03:42;101482.94;;;20.40;68.02
43745;BME280;29359;53.048;8.732;2022-08-19T09:06:02;101486.88;;;20.32;69.07
43745;BME280;29359;53.048;8.732;2022-08-19T09:08:26;101491.09;;;20.36;69.26
43745;BME280;29359;53.048;8.732;2022-08-19T09:10:39;101487.94;;;20.46;69.02
43745;BME280;29359;53.048;8.732;2022-08-19T09:15:05;101487.16;;;20.44;68.02
43745;BME280;29359;53.048;8.732;2022-08-19T09:17:09;101485.66;;;20.38;67.30
43745;BME280;29359;53.048;8.732;2022-08-19T09:19:10;101482.53;;;20.30;66.71
43745;BME280;29359;53.048;8.732;2022-08-19T09:21:13;101477.38;;;20.27;67.13
43745;BME280;29359;53.048;8.732;2022-08-19T09:23:15;101472.94;;;20.26;67.59
43745;BME280;29359;53.048;8.732;2022-08-19T09:25:22;101472.59;;;20.32;67.52
43745;BME280;29359;53.048;8.732;2022-08-19T09:27:29;101478.50;;;20.38;67.06
43745;BME280;29359;53.048;8.732;2022-08-19T09:29:52;101479.13;;;20.44;66.69
43745;BME280;29359;53.048;8.732;2022-08-19T09:31:55;101478.00;;;20.62;63.89
43745;BME280;29359;53.048;8.732;2022-08-19T09:33:56;101476.13;;;20.78;62.18
43745;BME280;29359;53.048;8.732;2022-08-19T09:36:18;101472.53;;;20.93;61.65
43745;BME280;29359;53.048;8.732;2022-08-19T09:38:29;101481.66;;;21.05;61.57
43745;BME280;29359;53.048;8.732;2022-08-19T09:40:31;101476.56;;;21.15;61.04
43745;BME280;29359;53.048;8.732;2022-08-19T09:42:38;101473.28;;;21.25;60.72
43745;BME280;29359;53.048;8.732;2022-08-19T09:44:51;101473.56;;;21.35;61.75
43745;BME280;29359;53.048;8.732;2022-08-19T09:46:52;101474.41;;;21.36;62.70
43745;BME280;29359;53.048;8.732;2022-08-19T09:48:54;101469.13;;;21.34;62.65
43745;BME280;29359;53.048;8.732;2022-08-19T09:51:09;101469.91;;;21.36;62.32
43745;BME280;29359;53.048;8.732;2022-08-19T09:53:12;101472.00;;;21.45;61.75
43745;BME280;29359;53.048;8.732;2022-08-19T09:55:13;101468.53;;;21.57;60.92
43745;BME280;29359;53.048;8.732;2022-08-19T09:57:18;101463.41;;;21.67;60.66
43745;BME280;29359;53.048;8.732;2022-08-19T09:59:20;101467.94;;;21.67;60.36
43745;BME280;29359;53.048;8.732;2022-08-19T10:01:24;101463.91;;;21.74;60.29
43745;BME280;29359;53.048;8.732;2022-08-19T10:03:27;101468.88;;;21.80;59.79
43745;BME280;29359;53.048;8.732;2022-08-19T10:05:30;101464.72;;;21.88;60.23
43745;BME280;29359;53.048;8.732;2022-08-19T10:07:50;101464.34;;;21.94;60.31
43745;BME280;29359;53.048;8.732;2022-08-19T10:09:52;101460.19;;;22.03;59.39
43745;BME280;29359;53.048;8.732;2022-08-19T10:11:53;101447.69;;;22.02;59.72
43745;BME280;29359;53.048;8.732;2022-08-19T10:13:55;101446.44;;;22.08;59.31
43745;BME280;29359;53.048;8.732;2022-08-19T10:16:06;101443.72;;;22.22;57.72
43745;BME280;29359;53.048;8.732;2022-08-19T10:18:10;101442.75;;;22.23;58.11
43745;BME280;29359;53.048;8.732;2022-08-19T10:20:12;101442.88;;;22.21;58.48
43745;BME280;29359;53.048;8.732;2022-08-19T10:22:13;101437.28;;;22.24;58.23
43745;BME280;29359;53.048;8.732;2022-08-19T10:24:16;101436.84;;;22.31;58.23
43745;BME280;29359;53.048;8.732;2022-08-19T10:26:22;101447.06;;;22.25;58.73
43745;BME280;29359;53.048;8.732;2022-08-19T10:28:26;101443.72;;;22.22;58.26
43745;BME280;29359;53.048;8.732;2022-08-19T10:30:30;101444.81;;;22.32;58.81
43745;BME280;29359;53.048;8.732;2022-08-19T10:32:32;101446.16;;;22.52;58.42
43745;BME280;29359;53.048;8.732;2022-08-19T10:34:36;101438.22;;;22.63;56.98
43745;BME280;29359;53.048;8.732;2022-08-19T10:36:48;101442.56;;;22.91;57.29
43745;BME280;29359;53.048;8.732;2022-08-19T10:38:59;101428.59;;;23.11;56.24
43745;BME280;29359;53.048;8.732;2022-08-19T10:41:18;101433.16;;;23.35;56.06
43745;BME280;29359;53.048;8.732;2022-08-19T10:43:20;101413.44;;;23.60;55.84
43745;BME280;29359;53.048;8.732;2022-08-19T10:45:22;101422.50;;;23.83;54.48
43745;BME280;29359;53.048;8.732;2022-08-19T10:47:28;101417.59;;;24.00;53.64
43745;BME280;29359;53.048;8.732;2022-08-19T10:49:32;101419.28;;;24.25;53.80
43745;BME280;29359;53.048;8.732;2022-08-19T10:51:54;101423.81;;;24.49;48.53
43745;BME280;29359;53.048;8.732;2022-08-19T10:54:21;101422.06;;;24.71;52.65
43745;BME280;29359;53.048;8.732;2022-08-19T10:56:34;101421.88;;;25.08;47.92
43745;BME280;29359;53.048;8.732;2022-08-19T10:58:53;101421.28;;;25.16;45.70
43745;BME280;29359;53.048;8.732;2022-08-19T11:00:57;101422.34;;;25.47;44.98